Terminal Aerodrome Forecast
Issued by NWS Sterling, VA

Home | Current Version | Previous Version | Text Only | Print | Product List | Glossary On
Versions: 1 2 3 4 5 6 7 8 9 10 11 12 13 14 15 16 17 18 19 20 21 22 23 24 25 26 27
155
FTUS41 KLWX 300834 AAA
TAFDCA
TAF AMD
KDCA 300834Z 3009/3106 05007KT P6SM SCT070
     FM301100 05004KT P6SM BKN070
     FM301600 11004KT P6SM BKN070
     FM310300 14009KT P6SM OVC040=

USA.gov is the U.S. government's official web portal to all federal, state and local government web resources and services.